createdAt,value
2016-12-13T00:00:02.639Z,-4.47
2016-12-13T00:01:11.480Z,-4.44
2016-12-13T00:02:20.321Z,-4.44
2016-12-13T00:03:29.153Z,-4.45
2016-12-13T00:04:37.990Z,-4.52
2016-12-13T00:05:46.822Z,-4.45
2016-12-13T00:06:55.655Z,-4.4
2016-12-13T00:08:04.492Z,-4.42
2016-12-13T00:09:13.327Z,-4.38
2016-12-13T00:10:22.194Z,-4.45
2016-12-13T00:11:31.027Z,-4.44
2016-12-13T00:12:39.869Z,-4.38
2016-12-13T00:13:48.703Z,-4.27
2016-12-13T00:14:57.541Z,-4.34
2016-12-13T00:16:06.401Z,-4.27
2016-12-13T00:17:15.243Z,-4.2
2016-12-13T00:18:24.075Z,-4.19
2016-12-13T00:19:32.903Z,-4.27
2016-12-13T00:20:41.738Z,-4.24
2016-12-13T00:21:50.577Z,-4.27
2016-12-13T00:22:59.763Z,-4.2
2016-12-13T00:24:08.597Z,-4.33
2016-12-13T00:25:17.431Z,-4.31
2016-12-13T00:26:26.268Z,-4.14
2016-12-13T00:27:35.021Z,-4.16
2016-12-13T00:28:43.710Z,-4.04
2016-12-13T00:29:52.391Z,-4.01
2016-12-13T00:31:01.073Z,-3.94
2016-12-13T00:32:10.079Z,-3.91
2016-12-13T00:33:18.772Z,-4.04
2016-12-13T00:34:27.501Z,-3.95
2016-12-13T00:35:36.190Z,-4.05
2016-12-13T00:36:44.880Z,-3.98
2016-12-13T00:37:53.564Z,-3.94
2016-12-13T00:39:02.246Z,-3.91
2016-12-13T00:40:10.931Z,-3.94
2016-12-13T00:41:19.614Z,-3.9
2016-12-13T00:42:28.302Z,-3.85
2016-12-13T00:43:36.986Z,-3.91
2016-12-13T00:44:45.670Z,-3.96
2016-12-13T00:45:54.354Z,-3.91
2016-12-13T00:47:03.355Z,-3.98
2016-12-13T00:48:12.040Z,-3.9
2016-12-13T00:49:20.729Z,-3.87
2016-12-13T00:50:29.414Z,-3.91
2016-12-13T00:51:38.097Z,-3.9
2016-12-13T00:52:46.785Z,-3.87
2016-12-13T00:53:55.467Z,-3.81
2016-12-13T00:55:04.156Z,-3.84
2016-12-13T00:56:12.847Z,-3.74
2016-12-13T00:57:21.533Z,-3.65
2016-12-13T00:58:30.217Z,-3.68
2016-12-13T00:59:38.906Z,-3.69
2016-12-13T01:00:47.589Z,-3.68
2016-12-13T01:01:56.275Z,-3.61
2016-12-13T01:03:04.956Z,-3.65
2016-12-13T01:04:13.642Z,-3.59
2016-12-13T01:05:22.335Z,-3.51
2016-12-13T01:06:31.019Z,-3.47
2016-12-13T01:07:39.704Z,-3.41
2016-12-13T01:08:48.389Z,-3.4
2016-12-13T01:09:57.075Z,-3.29
2016-12-13T01:11:05.759Z,-3.27
2016-12-13T01:12:14.443Z,-3.09
2016-12-13T01:13:23.132Z,-3.12
2016-12-13T01:14:31.817Z,-3.05
2016-12-13T01:15:40.498Z,-3.09
2016-12-13T01:16:49.186Z,-3.04
2016-12-13T01:17:57.879Z,-2.99
2016-12-13T01:19:06.595Z,-3.04
2016-12-13T01:20:15.274Z,-3.11
2016-12-13T01:21:23.960Z,-2.99
2016-12-13T01:22:32.671Z,-3.05
2016-12-13T01:23:41.360Z,-3.14
2016-12-13T01:24:50.045Z,-3.11
2016-12-13T01:25:58.730Z,-3.01
2016-12-13T01:27:07.416Z,-3.01
2016-12-13T01:28:16.098Z,-3.05
2016-12-13T01:29:24.778Z,-2.96
2016-12-13T01:30:33.465Z,-2.99
2016-12-13T01:31:42.149Z,-3.11
2016-12-13T01:32:50.828Z,-3.15
2016-12-13T01:33:59.511Z,-3.17
2016-12-13T01:35:08.194Z,-3.04
2016-12-13T01:36:16.875Z,-3.12
2016-12-13T01:37:25.559Z,-3.08
2016-12-13T01:38:34.246Z,-3.07
2016-12-13T01:39:42.930Z,-3.08
2016-12-13T01:40:51.611Z,-3.08
2016-12-13T01:42:00.639Z,-3.09
2016-12-13T01:43:09.319Z,-3.01
2016-12-13T01:44:18.008Z,-3.07
2016-12-13T01:45:26.697Z,-3.08
2016-12-13T01:46:35.381Z,-3.11
2016-12-13T01:47:44.066Z,-3.12
2016-12-13T01:48:52.751Z,-3.04
2016-12-13T01:50:01.434Z,-3.11
2016-12-13T01:51:10.122Z,-3.05
2016-12-13T01:52:18.806Z,-3.08
2016-12-13T01:53:27.493Z,-3.05
2016-12-13T01:54:36.177Z,-3.08
2016-12-13T01:55:44.864Z,-3.11
2016-12-13T01:56:53.551Z,-3.14
2016-12-13T01:58:02.235Z,-3.17
2016-12-13T01:59:10.923Z,-3.15
2016-12-13T02:00:19.607Z,-3.08
2016-12-13T02:01:28.295Z,-3.2
2016-12-13T02:02:36.978Z,-3.17
2016-12-13T02:03:45.662Z,-3.25
2016-12-13T02:04:54.349Z,-3.19
2016-12-13T02:06:03.038Z,-3.3
2016-12-13T02:07:11.719Z,-3.29
2016-12-13T02:08:20.404Z,-3.27
2016-12-13T02:09:29.084Z,-3.23
2016-12-13T02:10:37.773Z,-3.27
2016-12-13T02:11:46.459Z,-3.15
2016-12-13T02:12:55.140Z,-3.25
2016-12-13T02:14:03.828Z,-3.23
2016-12-13T02:15:12.828Z,-3.4
2016-12-13T02:16:21.525Z,-3.33
2016-12-13T02:17:30.212Z,-3.41
2016-12-13T02:18:38.900Z,-3.41
2016-12-13T02:19:47.584Z,-3.37
2016-12-13T02:20:56.274Z,-3.46
2016-12-13T02:22:05.276Z,-3.43
2016-12-13T02:23:13.963Z,-3.4
2016-12-13T02:24:22.650Z,-3.47
2016-12-13T02:25:31.330Z,-3.44
2016-12-13T02:26:40.015Z,-3.46
2016-12-13T02:27:48.703Z,-3.48
2016-12-13T02:28:57.392Z,-3.47
2016-12-13T02:30:06.079Z,-3.41
2016-12-13T02:31:14.760Z,-3.43
2016-12-13T02:32:23.444Z,-3.46
2016-12-13T02:33:32.130Z,-3.44
2016-12-13T02:34:40.820Z,-3.5
2016-12-13T02:35:49.526Z,-3.47
2016-12-13T02:36:58.241Z,-3.44
2016-12-13T02:38:06.924Z,-3.43
2016-12-13T02:39:15.609Z,-3.47
2016-12-13T02:40:24.302Z,-3.44
2016-12-13T02:41:32.987Z,-3.46
2016-12-13T02:42:41.676Z,-3.47
2016-12-13T02:43:50.366Z,-3.41
2016-12-13T02:44:59.055Z,-3.47
2016-12-13T02:46:07.744Z,-3.41
2016-12-13T02:47:16.428Z,-3.46
2016-12-13T02:48:25.109Z,-3.38
2016-12-13T02:49:33.796Z,-3.37
2016-12-13T02:50:42.481Z,-3.37
2016-12-13T02:51:51.168Z,-3.37
2016-12-13T02:52:59.853Z,-3.43
2016-12-13T02:54:08.539Z,-3.29
2016-12-13T02:55:17.541Z,-3.22
2016-12-13T02:56:26.243Z,-3.26
2016-12-13T02:57:34.927Z,-3.23
2016-12-13T02:58:43.615Z,-3.27
2016-12-13T02:59:52.302Z,-3.22
2016-12-13T03:01:00.990Z,-3.11
2016-12-13T03:02:09.673Z,-3.19
2016-12-13T03:03:18.729Z,-3.15
2016-12-13T03:04:27.438Z,-3.15
2016-12-13T03:05:36.135Z,-3.09
2016-12-13T03:06:44.822Z,-3.2
2016-12-13T03:07:53.509Z,-3.09
2016-12-13T03:09:02.344Z,-3.14
2016-12-13T03:10:11.030Z,-3.07
2016-12-13T03:11:19.760Z,-3.07
2016-12-13T03:12:28.445Z,-3.04
2016-12-13T03:13:37.131Z,-3.05
2016-12-13T03:14:45.819Z,-3.07
2016-12-13T03:15:54.509Z,-3.01
2016-12-13T03:17:03.209Z,-2.99
2016-12-13T03:18:11.895Z,-3.14
2016-12-13T03:19:20.579Z,-3.08
2016-12-13T03:20:29.289Z,-3.09
2016-12-13T03:21:37.977Z,-3.07
2016-12-13T03:22:46.662Z,-2.99
2016-12-13T03:23:55.348Z,-2.99
2016-12-13T03:25:04.069Z,-3.01
2016-12-13T03:26:12.756Z,-3.01
2016-12-13T03:27:21.445Z,-2.99
2016-12-13T03:28:30.131Z,-2.96
2016-12-13T03:29:38.812Z,-2.96
2016-12-13T03:30:47.499Z,-2.94
2016-12-13T03:31:56.183Z,-2.99
2016-12-13T03:33:04.870Z,-2.99
2016-12-13T03:34:13.556Z,-2.98
2016-12-13T03:35:22.244Z,-2.9
2016-12-13T03:36:30.966Z,-2.99
2016-12-13T03:37:39.654Z,-3.01
2016-12-13T03:38:48.345Z,-2.91
2016-12-13T03:39:57.027Z,-2.9
2016-12-13T03:41:05.719Z,-2.86
2016-12-13T03:42:14.404Z,-2.91
2016-12-13T03:43:23.091Z,-2.87
2016-12-13T03:44:31.781Z,-2.9
2016-12-13T03:45:40.467Z,-2.86
2016-12-13T03:46:49.469Z,-2.89
2016-12-13T03:47:58.156Z,-2.78
2016-12-13T03:49:06.847Z,-2.75
2016-12-13T03:50:15.525Z,-2.78
2016-12-13T03:51:24.524Z,-2.72
2016-12-13T03:52:33.210Z,-2.61
2016-12-13T03:53:41.904Z,-2.65
2016-12-13T03:54:50.593Z,-2.61
2016-12-13T03:55:59.312Z,-2.54
2016-12-13T03:57:08.025Z,-2.52
2016-12-13T03:58:16.709Z,-2.57
2016-12-13T03:59:25.395Z,-2.61
2016-12-13T04:00:34.082Z,-2.5
2016-12-13T04:01:42.769Z,-2.48
2016-12-13T04:02:51.467Z,-2.52
2016-12-13T04:04:00.156Z,-2.4
2016-12-13T04:05:08.847Z,-2.51
2016-12-13T04:06:17.539Z,-2.51
2016-12-13T04:07:26.225Z,-2.42
2016-12-13T04:08:34.914Z,-2.47
2016-12-13T04:09:43.602Z,-2.4
2016-12-13T04:10:52.292Z,-2.42
2016-12-13T04:12:00.976Z,-2.48
2016-12-13T04:13:09.661Z,-2.4
2016-12-13T04:14:18.343Z,-2.39
2016-12-13T04:15:27.028Z,-2.39
2016-12-13T04:16:35.713Z,-2.4
2016-12-13T04:17:44.400Z,-2.44
2016-12-13T04:18:53.095Z,-2.42
2016-12-13T04:20:01.780Z,-2.4
2016-12-13T04:21:10.462Z,-2.47
2016-12-13T04:22:19.155Z,-2.39
2016-12-13T04:23:27.837Z,-2.39
2016-12-13T04:24:36.525Z,-2.44
2016-12-13T04:25:45.207Z,-2.44
2016-12-13T04:26:53.921Z,-2.36
2016-12-13T04:28:02.617Z,-2.44
2016-12-13T04:29:11.300Z,-2.34
2016-12-13T04:30:19.984Z,-2.48
2016-12-13T04:31:28.670Z,-2.39
2016-12-13T04:32:37.359Z,-2.36
2016-12-13T04:33:46.045Z,-2.33
2016-12-13T04:34:54.735Z,-2.32
2016-12-13T04:36:03.426Z,-2.28
2016-12-13T04:37:12.114Z,-2.32
2016-12-13T04:38:20.800Z,-2.29
2016-12-13T04:39:29.483Z,-2.28
2016-12-13T04:40:38.171Z,-2.18
2016-12-13T04:41:46.865Z,-2.26
2016-12-13T04:42:55.549Z,-2.33
2016-12-13T04:44:04.237Z,-2.28
2016-12-13T04:45:12.947Z,-2.18
2016-12-13T04:46:21.636Z,-2.25
2016-12-13T04:47:30.327Z,-2.2
2016-12-13T04:48:39.014Z,-2.14
2016-12-13T04:49:47.700Z,-2.1
2016-12-13T04:50:56.388Z,-2.14
2016-12-13T04:52:05.075Z,-2.14
2016-12-13T04:53:13.765Z,-2.11
2016-12-13T04:54:22.456Z,-2.23
2016-12-13T04:55:31.143Z,-2.18
2016-12-13T04:56:39.828Z,-2.23
2016-12-13T04:57:48.518Z,-2.23
2016-12-13T04:58:57.234Z,-2.2
2016-12-13T05:00:05.930Z,-2.23
2016-12-13T05:01:14.615Z,-2.14
2016-12-13T05:02:23.301Z,-2.29
2016-12-13T05:03:31.994Z,-2.32
2016-12-13T05:04:40.706Z,-2.34
2016-12-13T05:05:49.726Z,-2.37
2016-12-13T05:06:58.423Z,-2.44
2016-12-13T05:08:07.111Z,-2.42
2016-12-13T05:09:15.801Z,-2.44
2016-12-13T05:10:24.486Z,-2.51
2016-12-13T05:11:33.168Z,-2.5
2016-12-13T05:12:41.852Z,-2.57
2016-12-13T05:13:50.546Z,-2.36
2016-12-13T05:14:59.235Z,-2.45
2016-12-13T05:16:07.918Z,-2.52
2016-12-13T05:17:16.608Z,-2.47
2016-12-13T05:18:25.296Z,-2.37
2016-12-13T05:19:33.986Z,-2.37
2016-12-13T05:20:42.722Z,-2.33
2016-12-13T05:21:51.407Z,-2.36
2016-12-13T05:23:00.094Z,-2.32
2016-12-13T05:24:08.782Z,-2.17
2016-12-13T05:25:17.479Z,-2.25
2016-12-13T05:26:26.164Z,-2.11
2016-12-13T05:27:34.850Z,-2.1
2016-12-13T05:28:43.535Z,-2.05
2016-12-13T05:29:52.225Z,-2.08
2016-12-13T05:31:00.909Z,-2.04
2016-12-13T05:32:09.604Z,-2.04
2016-12-13T05:33:18.293Z,-2
2016-12-13T05:34:26.986Z,-2.02
2016-12-13T05:35:35.667Z,-2.05
2016-12-13T05:36:44.360Z,-2
2016-12-13T05:37:53.050Z,-2.02
2016-12-13T05:39:01.740Z,-2.02
2016-12-13T05:40:10.434Z,-1.99
2016-12-13T05:41:19.121Z,-2
2016-12-13T05:42:27.806Z,-2.05
2016-12-13T05:43:36.492Z,-2.05
2016-12-13T05:44:45.186Z,-2
2016-12-13T05:45:53.881Z,-2
2016-12-13T05:47:02.564Z,-2.04
2016-12-13T05:48:11.568Z,-1.96
2016-12-13T05:49:20.259Z,-1.94
2016-12-13T05:50:28.944Z,-1.94
2016-12-13T05:51:37.630Z,-1.9
2016-12-13T05:52:46.316Z,-1.96
2016-12-13T05:53:55.009Z,-1.9
2016-12-13T05:55:03.746Z,-1.84
2016-12-13T05:56:12.428Z,-1.92
2016-12-13T05:57:21.118Z,-1.94
2016-12-13T05:58:29.837Z,-1.89
2016-12-13T05:59:38.525Z,-1.9
2016-12-13T06:00:47.260Z,-1.9
2016-12-13T06:01:55.947Z,-1.92
2016-12-13T06:03:04.636Z,-1.9
2016-12-13T06:04:13.636Z,-1.82
2016-12-13T06:05:22.324Z,-1.75
2016-12-13T06:06:31.008Z,-1.78
2016-12-13T06:07:39.690Z,-1.74
2016-12-13T06:08:48.382Z,-1.81
2016-12-13T06:09:57.065Z,-1.76
2016-12-13T06:11:05.752Z,-1.76
2016-12-13T06:12:14.440Z,-1.75
2016-12-13T06:13:23.127Z,-1.78
2016-12-13T06:14:31.819Z,-1.81
2016-12-13T06:15:40.506Z,-1.72
2016-12-13T06:16:49.191Z,-1.72
2016-12-13T06:17:57.876Z,-1.74
2016-12-13T06:19:06.881Z,-1.61
2016-12-13T06:20:15.578Z,-1.69
2016-12-13T06:21:24.264Z,-1.74
2016-12-13T06:22:32.982Z,-1.72
2016-12-13T06:23:41.671Z,-1.68
2016-12-13T06:24:50.358Z,-1.71
2016-12-13T06:25:59.041Z,-1.79
2016-12-13T06:27:07.731Z,-1.76
2016-12-13T06:28:16.418Z,-1.75
2016-12-13T06:29:25.110Z,-1.74
2016-12-13T06:30:33.795Z,-1.9
2016-12-13T06:31:42.482Z,-1.84
2016-12-13T06:32:51.173Z,-1.76
2016-12-13T06:33:59.861Z,-1.78
2016-12-13T06:35:08.549Z,-1.81
2016-12-13T06:36:17.235Z,-1.84
2016-12-13T06:37:25.937Z,-1.84
2016-12-13T06:38:34.627Z,-1.87
2016-12-13T06:39:43.311Z,-1.9
2016-12-13T06:40:51.994Z,-1.84
2016-12-13T06:42:00.678Z,-1.87
2016-12-13T06:43:09.364Z,-1.86
2016-12-13T06:44:18.057Z,-1.84
2016-12-13T06:45:26.743Z,-1.92
2016-12-13T06:46:35.428Z,-1.84
2016-12-13T06:47:44.115Z,-1.86
2016-12-13T06:48:52.947Z,-1.94
2016-12-13T06:50:01.687Z,-1.79
2016-12-13T06:51:10.389Z,-1.92
2016-12-13T06:52:19.087Z,-1.93
2016-12-13T06:53:27.770Z,-1.96
2016-12-13T06:54:36.456Z,-1.9
2016-12-13T06:55:45.148Z,-1.86
2016-12-13T06:56:53.834Z,-1.93
2016-12-13T06:58:02.522Z,-1.92
2016-12-13T06:59:11.210Z,-1.89
2016-12-13T07:00:19.896Z,-1.84
2016-12-13T07:01:28.591Z,-1.9
2016-12-13T07:02:37.279Z,-1.92
2016-12-13T07:03:45.967Z,-1.89
2016-12-13T07:04:54.653Z,-1.92
2016-12-13T07:06:03.658Z,-1.9
2016-12-13T07:07:12.344Z,-1.87
2016-12-13T07:08:21.034Z,-1.94
2016-12-13T07:09:29.727Z,-1.89
2016-12-13T07:10:38.412Z,-1.89
2016-12-13T07:11:47.098Z,-1.92
2016-12-13T07:12:55.790Z,-1.89
2016-12-13T07:14:04.481Z,-1.89
2016-12-13T07:15:13.162Z,-1.84
2016-12-13T07:16:21.849Z,-1.89
2016-12-13T07:17:30.848Z,-1.87
2016-12-13T07:18:39.542Z,-1.97
2016-12-13T07:19:48.230Z,-1.92
2016-12-13T07:20:56.913Z,-1.89
2016-12-13T07:22:05.599Z,-1.87
2016-12-13T07:23:14.284Z,-1.89
2016-12-13T07:24:22.968Z,-1.87
2016-12-13T07:25:31.658Z,-1.78
2016-12-13T07:26:40.347Z,-1.89
2016-12-13T07:27:49.038Z,-1.86
2016-12-13T07:28:57.754Z,-1.92
2016-12-13T07:30:06.444Z,-1.9
2016-12-13T07:31:15.127Z,-1.99
2016-12-13T07:32:23.815Z,-1.99
2016-12-13T07:33:32.509Z,-1.9
2016-12-13T07:34:41.198Z,-2.02
2016-12-13T07:35:49.888Z,-1.87
2016-12-13T07:36:58.582Z,-1.86
2016-12-13T07:38:07.269Z,-1.87
2016-12-13T07:39:15.953Z,-1.76
2016-12-13T07:40:24.647Z,-1.81
2016-12-13T07:41:33.337Z,-1.81
2016-12-13T07:42:42.025Z,-1.84
2016-12-13T07:43:51.033Z,-1.96
2016-12-13T07:44:59.723Z,-1.93
2016-12-13T07:46:08.412Z,-1.82
2016-12-13T07:47:17.098Z,-1.86
2016-12-13T07:48:25.786Z,-1.86
2016-12-13T07:49:34.476Z,-1.82
2016-12-13T07:50:43.165Z,-1.87
2016-12-13T07:51:51.856Z,-1.81
2016-12-13T07:53:00.544Z,-1.76
2016-12-13T07:54:09.553Z,-1.76
2016-12-13T07:55:18.243Z,-1.72
2016-12-13T07:56:26.927Z,-1.78
2016-12-13T07:57:35.612Z,-1.72
2016-12-13T07:58:44.298Z,-1.72
2016-12-13T07:59:52.993Z,-1.64
2016-12-13T08:01:01.678Z,-1.63
2016-12-13T08:02:10.366Z,-1.68
2016-12-13T08:03:19.053Z,-1.75
2016-12-13T08:04:27.740Z,-1.75
2016-12-13T08:05:36.427Z,-1.78
2016-12-13T08:06:45.115Z,-1.87
2016-12-13T08:07:53.798Z,-1.82
2016-12-13T08:09:02.487Z,-1.72
2016-12-13T08:10:11.169Z,-1.76
2016-12-13T08:11:19.852Z,-1.71
2016-12-13T08:12:28.593Z,-1.74
2016-12-13T08:13:37.278Z,-1.76
2016-12-13T08:14:45.966Z,-1.78
2016-12-13T08:15:54.650Z,-1.84
2016-12-13T08:17:03.336Z,-1.96
2016-12-13T08:18:12.021Z,-1.94
2016-12-13T08:19:20.711Z,-1.92
2016-12-13T08:20:29.428Z,-1.81
2016-12-13T08:21:38.149Z,-1.84
2016-12-13T08:22:46.835Z,-1.78
2016-12-13T08:23:55.523Z,-1.76
2016-12-13T08:25:04.210Z,-1.81
2016-12-13T08:26:12.898Z,-1.72
2016-12-13T08:27:21.587Z,-1.71
2016-12-13T08:28:30.279Z,-1.66
2016-12-13T08:29:38.966Z,-1.74
2016-12-13T08:30:47.648Z,-1.64
2016-12-13T08:31:56.341Z,-1.57
2016-12-13T08:33:05.030Z,-1.64
2016-12-13T08:34:13.713Z,-1.69
2016-12-13T08:35:22.400Z,-1.72
2016-12-13T08:36:31.086Z,-1.78
2016-12-13T08:37:39.771Z,-1.82
2016-12-13T08:38:48.488Z,-1.9
2016-12-13T08:39:57.174Z,-1.94
2016-12-13T08:41:06.176Z,-1.92
2016-12-13T08:42:14.859Z,-1.97
2016-12-13T08:43:23.547Z,-2.1
2016-12-13T08:44:32.230Z,-2.1
2016-12-13T08:45:40.914Z,-2.1
2016-12-13T08:46:49.600Z,-2.07
2016-12-13T08:47:58.291Z,-2
2016-12-13T08:49:06.976Z,-1.96
2016-12-13T08:50:15.660Z,-1.92
2016-12-13T08:51:24.365Z,-1.87
2016-12-13T08:52:33.050Z,-1.87
2016-12-13T08:53:41.749Z,-1.92
2016-12-13T08:54:50.433Z,-1.92
2016-12-13T08:55:59.117Z,-2.08
2016-12-13T08:57:07.801Z,-2.28
2016-12-13T08:58:16.887Z,-2.29
2016-12-13T08:59:25.572Z,-2.29
2016-12-13T09:00:34.263Z,-2.26
2016-12-13T09:01:42.954Z,-2.23
2016-12-13T09:02:51.644Z,-2.18
2016-12-13T09:04:00.327Z,-2.14
2016-12-13T09:05:09.016Z,-2.15
2016-12-13T09:06:17.698Z,-2.29
2016-12-13T09:07:26.696Z,-2.26
2016-12-13T09:08:35.386Z,-2.29
2016-12-13T09:09:44.124Z,-2.26
2016-12-13T09:10:52.807Z,-2.23
2016-12-13T09:12:01.490Z,-2.18
2016-12-13T09:13:10.181Z,-2.22
2016-12-13T09:14:18.865Z,-2.11
2016-12-13T09:15:27.638Z,-2.04
2016-12-13T09:16:36.325Z,-2.14
2016-12-13T09:17:45.031Z,-2.25
2016-12-13T09:18:53.717Z,-2.29
2016-12-13T09:20:02.398Z,-2.29
2016-12-13T09:21:11.241Z,-2.34
2016-12-13T09:22:19.947Z,-2.44
2016-12-13T09:23:28.629Z,-2.51
2016-12-13T09:24:37.313Z,-2.54
2016-12-13T09:25:45.997Z,-2.44
2016-12-13T09:26:54.741Z,-2.4
2016-12-13T09:28:03.431Z,-2.33
2016-12-13T09:29:12.117Z,-2.5
2016-12-13T09:30:20.797Z,-2.52
2016-12-13T09:31:29.488Z,-2.57
2016-12-13T09:32:38.222Z,-2.63
2016-12-13T09:33:46.907Z,-2.68
2016-12-13T09:34:55.591Z,-2.7
2016-12-13T09:36:04.282Z,-2.72
2016-12-13T09:37:12.968Z,-2.75
2016-12-13T09:38:21.702Z,-2.66
2016-12-13T09:39:30.390Z,-2.66
2016-12-13T09:40:39.072Z,-2.54
2016-12-13T09:41:47.761Z,-2.54
2016-12-13T09:42:56.446Z,-2.54
2016-12-13T09:44:05.186Z,-2.4
2016-12-13T09:45:13.870Z,-2.39
2016-12-13T09:46:22.551Z,-2.4
2016-12-13T09:47:31.244Z,-2.44
2016-12-13T09:48:39.928Z,-2.42
2016-12-13T09:49:48.661Z,-2.36
2016-12-13T09:50:57.347Z,-2.55
2016-12-13T09:52:06.029Z,-2.58
2016-12-13T09:53:14.717Z,-2.51
2016-12-13T09:54:23.405Z,-2.54
2016-12-13T09:55:32.140Z,-2.63
2016-12-13T09:56:40.827Z,-2.62
2016-12-13T09:57:49.514Z,-2.62
2016-12-13T09:58:58.204Z,-2.66
2016-12-13T10:00:06.894Z,-2.62
2016-12-13T10:01:15.624Z,-2.7
2016-12-13T10:02:25.027Z,-2.58
2016-12-13T10:03:33.711Z,-2.7
2016-12-13T10:04:42.394Z,-2.68
2016-12-13T10:05:51.078Z,-2.65
2016-12-13T10:06:59.819Z,-2.66
2016-12-13T10:08:08.506Z,-2.69
2016-12-13T10:09:17.192Z,-2.68
2016-12-13T10:10:25.879Z,-2.73
2016-12-13T10:11:34.570Z,-2.8
2016-12-13T10:12:43.313Z,-2.91
2016-12-13T10:13:51.999Z,-2.94
2016-12-13T10:15:00.686Z,-2.99
2016-12-13T10:16:09.374Z,-2.98
2016-12-13T10:17:18.063Z,-2.99
2016-12-13T10:18:26.799Z,-2.96
2016-12-13T10:19:35.484Z,-3.01
2016-12-13T10:20:44.170Z,-2.98
2016-12-13T10:21:52.858Z,-2.84
2016-12-13T10:23:01.865Z,-2.9
2016-12-13T10:24:10.597Z,-2.81
2016-12-13T10:25:19.286Z,-2.9
2016-12-13T10:26:27.973Z,-2.93
2016-12-13T10:27:36.654Z,-2.89
2016-12-13T10:28:45.336Z,-2.83
2016-12-13T10:29:54.118Z,-2.89
2016-12-13T10:31:02.802Z,-2.87
2016-12-13T10:32:11.565Z,-2.9
2016-12-13T10:33:20.346Z,-2.7
2016-12-13T10:34:29.031Z,-2.66
2016-12-13T10:35:37.763Z,-2.63
2016-12-13T10:36:46.452Z,-2.7
2016-12-13T10:37:55.134Z,-2.86
2016-12-13T10:39:03.830Z,-3.02
2016-12-13T10:40:12.511Z,-3.05
2016-12-13T10:41:21.196Z,-3.14
2016-12-13T10:42:29.879Z,-3.19
2016-12-13T10:43:38.566Z,-3.27
2016-12-13T10:44:47.246Z,-3.3
2016-12-13T10:45:56.245Z,-3.41
2016-12-13T10:47:04.928Z,-3.41
2016-12-13T10:48:13.611Z,-3.4
2016-12-13T10:49:22.298Z,-3.3
2016-12-13T10:50:30.985Z,-3.17
2016-12-13T10:51:39.668Z,-3.09
2016-12-13T10:52:48.351Z,-3.05
2016-12-13T10:53:57.361Z,-2.98
2016-12-13T10:55:06.044Z,-2.98
2016-12-13T10:56:14.733Z,-3.01
2016-12-13T10:57:23.414Z,-3.02
2016-12-13T10:58:32.103Z,-3.01
2016-12-13T10:59:40.786Z,-2.98
2016-12-13T11:00:49.510Z,-2.93
2016-12-13T11:01:58.192Z,-2.86
2016-12-13T11:03:06.885Z,-2.91
2016-12-13T11:04:15.570Z,-2.91
2016-12-13T11:05:24.255Z,-2.9
2016-12-13T11:06:32.943Z,-2.86
2016-12-13T11:07:41.632Z,-2.86
2016-12-13T11:08:50.324Z,-2.8
2016-12-13T11:09:59.023Z,-2.81
2016-12-13T11:11:07.708Z,-2.9
2016-12-13T11:12:16.412Z,-2.89
2016-12-13T11:13:25.102Z,-2.98
2016-12-13T11:14:33.783Z,-2.93
2016-12-13T11:15:42.464Z,-2.96
2016-12-13T11:16:51.152Z,-3.02
2016-12-13T11:17:59.840Z,-2.94
2016-12-13T11:19:08.523Z,-2.86
2016-12-13T11:20:17.242Z,-2.94
2016-12-13T11:21:25.934Z,-2.89
2016-12-13T11:22:34.640Z,-2.83
2016-12-13T11:23:43.325Z,-2.78
2016-12-13T11:24:52.010Z,-2.72
2016-12-13T11:26:00.696Z,-2.84
2016-12-13T11:27:09.387Z,-2.7
2016-12-13T11:28:18.068Z,-2.76
2016-12-13T11:29:26.758Z,-2.73
2016-12-13T11:30:35.452Z,-2.7
2016-12-13T11:31:44.141Z,-2.8
2016-12-13T11:32:52.831Z,-2.86
2016-12-13T11:34:01.514Z,-2.9
2016-12-13T11:35:10.199Z,-2.89
2016-12-13T11:36:18.885Z,-2.89
2016-12-13T11:37:27.572Z,-2.86
2016-12-13T11:38:36.264Z,-2.83
2016-12-13T11:39:44.959Z,-2.69
2016-12-13T11:40:53.647Z,-2.47
2016-12-13T11:42:02.332Z,-2.2
2016-12-13T11:43:11.018Z,-1.93
2016-12-13T11:44:19.700Z,-1.69
2016-12-13T11:45:28.388Z,-1.38
2016-12-13T11:46:37.089Z,-1.22
2016-12-13T11:47:45.806Z,-1.12
2016-12-13T11:48:54.493Z,-1.29
2016-12-13T11:50:03.190Z,-1.46
2016-12-13T11:51:11.875Z,-1.56
2016-12-13T11:52:20.579Z,-1.96
2016-12-13T11:53:29.580Z,-2.04
2016-12-13T11:54:38.265Z,-2.1
2016-12-13T11:55:46.955Z,-2.2
2016-12-13T11:56:55.644Z,-2.18
2016-12-13T11:58:04.340Z,-2.28
2016-12-13T11:59:13.362Z,-2.34
2016-12-13T12:00:22.055Z,-2.36
2016-12-13T12:01:30.742Z,-2.36
2016-12-13T12:02:39.430Z,-2.44
2016-12-13T12:03:48.119Z,-2.51
2016-12-13T12:04:56.809Z,-2.5
2016-12-13T12:06:05.491Z,-2.54
2016-12-13T12:07:14.186Z,-2.52
2016-12-13T12:08:22.901Z,-2.5
2016-12-13T12:09:31.579Z,-2.57
2016-12-13T12:10:40.578Z,-2.55
2016-12-13T12:11:49.298Z,-2.62
2016-12-13T12:12:57.983Z,-2.61
2016-12-13T12:14:06.676Z,-2.62
2016-12-13T12:15:15.371Z,-2.91
2016-12-13T12:16:24.058Z,-2.84
2016-12-13T12:17:32.745Z,-2.87
2016-12-13T12:18:41.482Z,-2.94
2016-12-13T12:19:50.165Z,-3.02
2016-12-13T12:20:58.849Z,-2.99
2016-12-13T12:22:07.535Z,-2.94
2016-12-13T12:23:16.228Z,-2.89
2016-12-13T12:24:24.917Z,-2.73
2016-12-13T12:25:33.605Z,-2.68
2016-12-13T12:26:42.287Z,-2.68
2016-12-13T12:27:50.973Z,-2.54
2016-12-13T12:28:59.663Z,-2.4
2016-12-13T12:30:08.353Z,-2.5
2016-12-13T12:31:17.039Z,-2.29
2016-12-13T12:32:25.718Z,-2.33
2016-12-13T12:33:34.401Z,-2.26
2016-12-13T12:34:43.087Z,-2.05
2016-12-13T12:35:51.766Z,-1.81
2016-12-13T12:37:00.457Z,-1.48
2016-12-13T12:38:09.479Z,-1.4
2016-12-13T12:39:18.162Z,-1.29
2016-12-13T12:40:26.848Z,-1.12
2016-12-13T12:41:35.536Z,-1.15
2016-12-13T12:42:44.228Z,-1.06
2016-12-13T12:43:52.911Z,-0.85
2016-12-13T12:45:01.592Z,-0.7
2016-12-13T12:46:10.286Z,-0.74
2016-12-13T12:47:18.999Z,-0.82
2016-12-13T12:48:27.691Z,-0.96
2016-12-13T12:49:36.371Z,-1.01
2016-12-13T12:50:45.060Z,-1.09
2016-12-13T12:51:53.750Z,-1.06
2016-12-13T12:53:02.438Z,-1.18
2016-12-13T12:54:11.121Z,-1.29
2016-12-13T12:55:19.810Z,-1.43
2016-12-13T12:56:28.498Z,-1.69
2016-12-13T12:57:37.499Z,-1.76
2016-12-13T12:58:46.182Z,-1.81
2016-12-13T12:59:54.874Z,-1.79
2016-12-13T13:01:03.564Z,-1.87
2016-12-13T13:02:12.248Z,-1.87
2016-12-13T13:03:20.938Z,-1.87
2016-12-13T13:04:29.623Z,-1.86
2016-12-13T13:05:38.308Z,-1.76
2016-12-13T13:06:46.996Z,-1.69
2016-12-13T13:07:55.688Z,-1.69
2016-12-13T13:09:04.386Z,-1.63
2016-12-13T13:10:13.129Z,-1.6
2016-12-13T13:11:21.821Z,-1.69
2016-12-13T13:12:30.503Z,-1.68
2016-12-13T13:13:39.190Z,-1.63
2016-12-13T13:14:47.879Z,-1.61
2016-12-13T13:15:56.568Z,-1.66
2016-12-13T13:17:05.576Z,-1.81
2016-12-13T13:18:14.267Z,-1.97
2016-12-13T13:19:22.953Z,-2.05
2016-12-13T13:20:31.636Z,-2.2
2016-12-13T13:21:40.320Z,-2.26
2016-12-13T13:22:49.008Z,-2.36
2016-12-13T13:23:57.702Z,-2.32
2016-12-13T13:25:06.392Z,-2.17
2016-12-13T13:26:15.075Z,-2.11
2016-12-13T13:27:23.757Z,-2
2016-12-13T13:28:32.445Z,-1.9
2016-12-13T13:29:41.128Z,-1.71
2016-12-13T13:30:49.816Z,-1.6
2016-12-13T13:31:58.501Z,-1.53
2016-12-13T13:33:07.192Z,-1.48
2016-12-13T13:34:15.879Z,-1.36
2016-12-13T13:35:24.569Z,-1.3
2016-12-13T13:36:33.292Z,-1.21
2016-12-13T13:37:41.979Z,-1.07
2016-12-13T13:38:51.625Z,-1.12
2016-12-13T13:40:00.307Z,-1
2016-12-13T13:41:09.006Z,-1.07
2016-12-13T13:42:17.688Z,-1.04
2016-12-13T13:43:26.379Z,-0.93
2016-12-13T13:44:35.139Z,-1
2016-12-13T13:45:43.823Z,-0.94
2016-12-13T13:46:52.542Z,-0.91
2016-12-13T13:48:01.236Z,-0.96
2016-12-13T13:49:09.923Z,-0.87
2016-12-13T13:50:18.954Z,-0.84
2016-12-13T13:51:27.644Z,-0.77
2016-12-13T13:52:36.357Z,-0.84
2016-12-13T13:53:45.045Z,-0.8
2016-12-13T13:54:53.735Z,-0.72
2016-12-13T13:56:02.522Z,-0.77
2016-12-13T13:57:11.209Z,-0.72
2016-12-13T13:58:19.896Z,-0.81
2016-12-13T13:59:28.578Z,-0.89
2016-12-13T14:00:37.286Z,-0.85
2016-12-13T14:01:46.018Z,-0.85
2016-12-13T14:02:54.708Z,-0.89
2016-12-13T14:04:03.394Z,-0.81
2016-12-13T14:05:12.078Z,-0.77
2016-12-13T14:06:20.767Z,-0.89
2016-12-13T14:07:29.502Z,-0.85
2016-12-13T14:08:38.188Z,-0.84
2016-12-13T14:09:46.872Z,-0.97
2016-12-13T14:10:55.556Z,-1.07
2016-12-13T14:12:04.237Z,-1.19
2016-12-13T14:13:12.977Z,-1.17
2016-12-13T14:14:21.678Z,-1.3
2016-12-13T14:15:30.369Z,-1.38
2016-12-13T14:16:39.058Z,-1.38
2016-12-13T14:17:47.751Z,-1.38
2016-12-13T14:18:56.485Z,-1.3
2016-12-13T14:20:05.175Z,-1.32
2016-12-13T14:21:13.863Z,-1.21
2016-12-13T14:22:22.573Z,-1.18
2016-12-13T14:23:31.255Z,-1.21
2016-12-13T14:24:39.938Z,-1.17
2016-12-13T14:25:48.622Z,-1.25
2016-12-13T14:26:57.314Z,-1.32
2016-12-13T14:28:06.004Z,-1.25
2016-12-13T14:29:14.690Z,-1.19
2016-12-13T14:30:23.374Z,-1.15
2016-12-13T14:31:32.062Z,-1.17
2016-12-13T14:32:40.747Z,-1.18
2016-12-13T14:33:49.433Z,-1.21
2016-12-13T14:34:58.123Z,-1.19
2016-12-13T14:36:06.815Z,-1.15
2016-12-13T14:37:15.493Z,-1.19
2016-12-13T14:38:24.186Z,-1.11
2016-12-13T14:39:32.898Z,-1.14
2016-12-13T14:40:41.671Z,-1.09
2016-12-13T14:41:50.931Z,-1.14
2016-12-13T14:42:59.617Z,-1.15
2016-12-13T14:44:08.317Z,-1.19
2016-12-13T14:45:17.015Z,-1.18
2016-12-13T14:46:25.712Z,-1.09
2016-12-13T14:47:34.405Z,-1.12
2016-12-13T14:48:43.098Z,-1.19